Time;durP1;ratioP1;P1;durP2;ratioP2;P2;SDS_P1;SDS_P2;PMS_P1;PMS_P2;Temp;Humidity;BMP_temperature;BMP_pressure;BME280_temperature;BME280_humidity;BME280_pressure;Samples;Min_cycle;Max_cycle;Signal;HPM_P1;HPM_P2
2021/04/24 00:01:47;;;;;;;10.05;6.72;;;6.90;99.90;;;;;;5051653;28;20216;-80
2021/04/24 00:04:13;;;;;;;13.27;7.93;;;6.80;99.90;;;;;;5051525;28;20257;-79
2021/04/24 00:06:40;;;;;;;15.85;8.02;;;6.80;99.90;;;;;;5050305;28;20270;-78
2021/04/24 00:09:07;;;;;;;13.05;9.35;;;6.80;99.90;;;;;;5051905;28;20181;-79
2021/04/24 00:11:33;;;;;;;10.18;8.05;;;6.90;99.90;;;;;;5050799;28;20222;-78
2021/04/24 00:14:00;;;;;;;8.82;6.85;;;6.90;99.90;;;;;;5051469;28;20650;-80
2021/04/24 00:16:27;;;;;;;11.80;7.43;;;6.90;99.90;;;;;;5049873;28;20669;-79
2021/04/24 00:18:53;;;;;;;18.65;8.00;;;6.90;99.90;;;;;;5053213;28;20278;-81
2021/04/24 00:21:21;;;;;;;10.32;7.82;;;6.90;99.90;;;;;;5070626;28;20196;-78
2021/04/24 00:23:47;;;;;;;13.10;8.70;;;6.80;99.90;;;;;;5071733;28;20298;-78
2021/04/24 00:26:14;;;;;;;12.43;7.22;;;6.80;99.90;;;;;;5039696;28;20788;-78
2021/04/24 00:28:41;;;;;;;14.77;9.18;;;6.80;99.90;;;;;;5032157;28;20659;-80
2021/04/24 00:31:08;;;;;;;12.52;8.50;;;;;;;;;;5030670;28;20609;-78
2021/04/24 00:33:35;;;;;;;14.60;8.23;;;6.70;99.90;;;;;;5046112;28;20184;-78
2021/04/24 00:36:02;;;;;;;17.75;9.15;;;6.70;99.90;;;;;;5051557;28;20196;-81
2021/04/24 00:38:29;;;;;;;17.20;9.63;;;6.70;99.90;;;;;;5051021;28;20233;-79
2021/04/24 00:40:56;;;;;;;11.98;8.02;;;6.60;99.90;;;;;;5050914;28;20562;-79
2021/04/24 00:43:23;;;;;;;10.77;8.52;;;6.60;99.90;;;;;;5049941;28;20271;-81
2021/04/24 00:45:50;;;;;;;11.23;8.40;;;6.60;99.90;;;;;;5051360;28;20686;-80
2021/04/24 00:48:16;;;;;;;17.92;9.40;;;6.60;99.90;;;;;;5050586;28;20632;-78
2021/04/24 00:50:43;;;;;;;11.80;8.32;;;6.60;99.90;;;;;;5051326;28;20185;-79
2021/04/24 00:53:11;;;;;;;12.05;8.27;;;6.50;99.90;;;;;;5050698;28;20252;-78
2021/04/24 00:55:39;;;;;;;13.55;9.30;;;6.50;99.90;;;;;;5050666;28;20617;-78
2021/04/24 00:58:11;;;;;;;15.68;9.95;;;6.50;99.90;;;;;;5050954;28;20219;-78
2021/04/24 01:00:37;;;;;;;15.93;9.70;;;6.40;99.90;;;;;;5051501;28;20208;-79
2021/04/24 01:03:04;;;;;;;14.98;9.60;;;6.40;99.90;;;;;;5049298;28;20227;-81
2021/04/24 01:05:37;;;;;;;19.05;9.93;;;6.40;99.90;;;;;;5050459;28;20577;-79
2021/04/24 01:08:04;;;;;;;12.93;8.70;;;6.40;99.90;;;;;;5050811;28;20717;-78
2021/04/24 01:10:33;;;;;;;13.80;9.13;;;6.40;99.90;;;;;;5050847;28;20181;-79
2021/04/24 01:12:59;;;;;;;21.63;9.85;;;6.40;99.90;;;;;;5050805;28;20220;-79
2021/04/24 01:15:26;;;;;;;13.32;8.40;;;6.40;99.90;;;;;;5050940;28;20239;-77
2021/04/24 01:17:53;;;;;;;14.02;9.73;;;6.40;99.90;;;;;;5049979;28;20298;-78
2021/04/24 01:20:20;;;;;;;11.27;8.32;;;6.30;99.90;;;;;;5065013;28;20192;-78
2021/04/24 01:22:48;;;;;;;19.17;10.13;;;6.30;99.90;;;;;;5069636;28;20230;-77
2021/04/24 01:25:21;;;;;;;12.57;8.35;;;6.20;99.90;;;;;;5065464;28;20711;-78
2021/04/24 01:27:52;;;;;;;13.75;9.90;;;6.10;99.90;;;;;;5054483;28;20224;-78
2021/04/24 01:30:24;;;;;;;14.68;9.38;;;6.10;99.90;;;;;;5053526;28;20209;-78
2021/04/24 01:32:51;;;;;;;11.82;9.13;;;6.10;99.90;;;;;;5053380;28;20216;-80
2021/04/24 01:35:22;;;;;;;20.83;9.43;;;6.20;99.90;;;;;;5054082;28;20581;-78
2021/04/24 01:37:51;;;;;;;13.15;8.77;;;6.10;99.90;;;;;;5069483;28;20216;-79
2021/04/24 01:40:18;;;;;;;14.10;9.65;;;6.00;99.90;;;;;;5053996;28;20196;-79
2021/04/24 01:42:45;;;;;;;18.45;9.90;;;6.00;99.90;;;;;;5053016;28;20293;-79
2021/04/24 01:45:15;;;;;;;14.30;9.15;;;6.00;99.90;;;;;;5054573;28;20216;-79
2021/04/24 01:47:43;;;;;;;13.40;9.30;;;6.00;99.90;;;;;;5053795;28;20220;-78
2021/04/24 01:50:16;;;;;;;10.70;9.45;;;5.90;99.90;;;;;;5054478;28;20199;-79
2021/04/24 01:52:44;;;;;;;15.88;9.18;;;5.90;99.90;;;;;;5052801;28;20222;-79
2021/04/24 01:55:15;;;;;;;16.60;9.30;;;5.80;99.90;;;;;;5068913;28;20219;-78
2021/04/24 01:57:43;;;;;;;12.70;9.82;;;5.80;99.90;;;;;;5054079;28;20224;-79
2021/04/24 02:00:23;;;;;;;18.73;10.40;;;5.70;99.90;;;;;;5069785;28;20235;-78
2021/04/24 02:02:52;;;;;;;14.98;10.57;;;5.70;99.90;;;;;;5052240;28;20212;-81
2021/04/24 02:05:19;;;;;;;15.43;8.65;;;5.70;99.90;;;;;;5054274;28;20308;-77
2021/04/24 02:08:05;;;;;;;17.45;9.52;;;5.70;99.90;;;;;;5053884;28;20235;-78
2021/04/24 02:10:32;;;;;;;16.42;9.45;;;5.70;99.90;;;;;;5068474;28;20553;-79
2021/04/24 02:13:02;;;;;;;14.10;9.18;;;5.70;99.90;;;;;;5053683;28;20227;-78
2021/04/24 02:15:29;;;;;;;15.93;9.68;;;5.70;99.90;;;;;;5052825;28;20204;-77
2021/04/24 02:17:56;;;;;;;17.40;10.52;;;5.70;99.90;;;;;;5067749;28;20228;-79
2021/04/24 02:20:23;;;;;;;15.48;9.43;;;5.70;99.90;;;;;;5066973;28;20195;-79
2021/04/24 02:22:49;;;;;;;15.07;9.02;;;5.70;99.90;;;;;;5072471;28;20635;-78
2021/04/24 02:25:18;;;;;;;15.98;9.80;;;5.70;99.90;;;;;;5066239;28;20212;-79
2021/04/24 02:27:44;;;;;;;22.05;10.77;;;5.60;99.90;;;;;;5051977;28;20585;-77
2021/04/24 02:30:14;;;;;;;16.08;10.90;;;5.60;99.90;;;;;;5053742;28;20211;-78
2021/04/24 02:32:42;;;;;;;12.32;9.07;;;5.70;99.90;;;;;;5053394;28;20216;-78
2021/04/24 02:35:11;;;;;;;16.15;9.98;;;5.70;99.90;;;;;;5052230;28;20212;-76
2021/04/24 02:37:37;;;;;;;18.98;10.18;;;5.60;99.90;;;;;;5068237;28;20299;-78
2021/04/24 02:40:08;;;;;;;12.35;9.70;;;5.50;99.90;;;;;;5052767;28;20180;-77
2021/04/24 02:42:34;;;;;;;13.20;9.57;;;5.50;99.90;;;;;;5051847;28;20231;-77
2021/04/24 02:45:05;;;;;;;16.33;9.55;;;5.50;99.90;;;;;;5053439;28;20219;-76
2021/04/24 02:47:34;;;;;;;14.07;10.38;;;5.40;99.90;;;;;;5053118;28;20642;-78
2021/04/24 02:50:04;;;;;;;18.08;10.18;;;5.30;99.90;;;;;;5052677;28;20184;-79
2021/04/24 02:52:31;;;;;;;17.20;9.98;;;5.30;99.90;;;;;;5051672;28;20621;-78
2021/04/24 02:54:57;;;;;;;14.52;8.48;;;5.40;99.90;;;;;;5051505;28;20277;-78
2021/04/24 02:57:24;;;;;;;14.65;9.63;;;5.30;99.90;;;;;;5052581;28;20305;-78
2021/04/24 02:59:50;;;;;;;18.13;9.20;;;5.30;99.90;;;;;;5053232;28;20195;-78
2021/04/24 03:02:17;;;;;;;13.07;9.00;;;5.30;99.90;;;;;;5051173;28;20227;-78
2021/04/24 03:04:45;;;;;;;18.63;10.05;;;5.30;99.90;;;;;;5049392;28;20287;-78
2021/04/24 03:07:11;;;;;;;10.85;8.63;;;5.30;99.90;;;;;;5051365;28;20312;-80
2021/04/24 03:09:38;;;;;;;13.43;8.20;;;5.30;99.90;;;;;;5034847;28;20554;-77
2021/04/24 03:12:06;;;;;;;13.52;9.70;;;5.20;99.90;;;;;;5051509;28;20295;-78
2021/04/24 03:14:32;;;;;;;14.05;9.02;;;5.10;99.90;;;;;;5053088;28;20271;-78
2021/04/24 03:16:59;;;;;;;13.75;9.13;;;5.10;99.90;;;;;;5050003;28;20231;-77
2021/04/24 03:19:25;;;;;;;12.70;9.88;;;5.10;99.90;;;;;;5064621;28;20206;-78
2021/04/24 03:21:52;;;;;;;21.13;8.02;;;5.20;99.90;;;;;;5052594;28;20220;-77
2021/04/24 03:24:18;;;;;;;12.25;8.85;;;5.10;99.90;;;;;;5053124;28;20204;-79
2021/04/24 03:26:45;;;;;;;12.75;8.98;;;5.20;99.90;;;;;;5051924;28;20251;-78
2021/04/24 03:29:11;;;;;;;14.63;8.77;;;5.20;99.90;;;;;;5053155;28;20541;-77
2021/04/24 03:31:38;;;;;;;12.73;10.18;;;5.10;99.90;;;;;;5051390;28;20620;-80
2021/04/24 03:34:05;;;;;;;16.30;9.70;;;5.10;99.90;;;;;;5067315;28;20545;-78
2021/04/24 03:36:31;;;;;;;19.00;9.45;;;5.10;99.90;;;;;;5050766;28;20306;-78
2021/04/24 03:39:01;;;;;;;15.73;9.85;;;5.10;99.90;;;;;;5052801;28;20185;-78
2021/04/24 03:41:28;;;;;;;19.83;10.02;;;5.10;99.90;;;;;;5051661;28;20244;-80
2021/04/24 03:43:55;;;;;;;15.55;9.23;;;5.10;99.90;;;;;;5052622;28;20232;-77
2021/04/24 03:46:21;;;;;;;18.05;9.23;;;5.00;99.90;;;;;;5066991;28;20549;-82
2021/04/24 03:48:48;;;;;;;15.40;9.20;;;5.00;99.90;;;;;;5051900;28;20188;-80
2021/04/24 03:51:14;;;;;;;16.27;9.40;;;5.00;99.90;;;;;;5052023;28;20581;-77
2021/04/24 03:53:40;;;;;;;16.65;10.02;;;5.00;99.90;;;;;;5051308;28;20664;-77
2021/04/24 03:56:07;;;;;;;17.33;9.45;;;4.90;99.90;;;;;;5051600;28;20208;-78
2021/04/24 03:58:33;;;;;;;12.80;8.73;;;5.00;99.90;;;;;;5050603;28;20240;-78
2021/04/24 04:01:00;;;;;;;14.38;9.55;;;4.90;99.90;;;;;;5051173;28;20197;-75
2021/04/24 04:03:26;;;;;;;15.10;9.88;;;4.90;99.90;;;;;;5050533;28;20290;-78
2021/04/24 04:05:52;;;;;;;16.08;9.50;;;4.90;99.90;;;;;;5051449;28;20712;-78
2021/04/24 04:08:19;;;;;;;11.88;9.13;;;4.90;99.90;;;;;;5051522;28;20212;-78
2021/04/24 04:10:50;;;;;;;15.15;8.35;;;4.90;99.90;;;;;;5051284;28;20191;-78
2021/04/24 04:13:17;;;;;;;16.08;9.55;;;4.90;99.90;;;;;;5066682;28;20742;-77
2021/04/24 04:15:43;;;;;;;11.52;8.18;;;4.80;99.90;;;;;;5051756;28;20208;-77
2021/04/24 04:18:16;;;;;;;15.40;9.05;;;4.80;99.90;;;;;;5049587;28;20228;-78
2021/04/24 04:20:45;;;;;;;14.95;8.73;;;4.80;99.90;;;;;;5068753;28;20199;-77
2021/04/24 04:23:12;;;;;;;16.65;8.82;;;4.80;99.90;;;;;;5071603;28;20223;-78
2021/04/24 04:25:40;;;;;;;11.32;9.40;;;4.80;99.90;;;;;;5050318;28;20713;-76
2021/04/24 04:28:07;;;;;;;15.93;8.75;;;4.80;99.90;;;;;;5046900;28;20259;-78
2021/04/24 04:30:36;;;;;;;12.65;8.35;;;4.80;99.90;;;;;;5031920;28;20292;-77
2021/04/24 04:33:04;;;;;;;12.65;8.77;;;4.70;99.90;;;;;;5034437;28;20215;-77
2021/04/24 04:35:31;;;;;;;14.30;9.13;;;4.70;99.90;;;;;;5051830;28;20200;-82
2021/04/24 04:37:57;;;;;;;17.60;9.15;;;4.70;99.90;;;;;;5049874;28;20274;-78
2021/04/24 04:40:24;;;;;;;13.30;9.38;;;4.70;99.90;;;;;;5051280;28;20208;-77
2021/04/24 04:42:51;;;;;;;13.77;9.15;;;4.70;99.90;;;;;;5050577;28;20697;-76
2021/04/24 04:45:19;;;;;;;15.68;9.07;;;4.70;99.90;;;;;;5068232;28;20220;-75
2021/04/24 04:47:46;;;;;;;18.25;10.30;;;4.80;99.90;;;;;;5051644;28;20299;-77
2021/04/24 04:50:16;;;;;;;17.52;8.93;;;4.80;99.90;;;;;;5051671;28;20197;-78
2021/04/24 04:52:43;;;;;;;13.95;9.52;;;4.90;99.90;;;;;;5050870;28;20230;-77
2021/04/24 04:55:10;;;;;;;16.50;9.23;;;4.90;99.90;;;;;;5045904;28;20208;-81
2021/04/24 04:57:37;;;;;;;13.68;9.65;;;4.90;99.90;;;;;;5030874;28;20318;-76
2021/04/24 05:00:10;;;;;;;17.40;10.68;;;4.90;99.90;;;;;;5036339;28;20195;-77
2021/04/24 05:02:37;;;;;;;14.80;9.38;;;5.00;99.90;;;;;;5051616;28;20226;-77
2021/04/24 05:05:05;;;;;;;15.35;9.20;;;4.90;99.90;;;;;;5052413;28;20204;-75
2021/04/24 05:07:31;;;;;;;13.75;9.98;;;4.80;99.90;;;;;;5055050;28;20216;-77
2021/04/24 05:10:19;;;;;;;15.75;8.85;;;4.70;99.90;;;;;;5054688;28;20195;-76
2021/04/24 05:12:46;;;;;;;14.10;9.23;;;4.80;99.90;;;;;;5055088;28;20208;-77
2021/04/24 05:15:13;;;;;;;16.05;8.35;;;4.80;99.90;;;;;;5055805;28;20292;-77
2021/04/24 05:17:40;;;;;;;13.88;9.70;;;4.90;99.90;;;;;;5052956;28;20311;-77
2021/04/24 05:20:09;;;;;;;13.35;8.90;;;5.00;99.90;;;;;;5068193;28;20232;-78
2021/04/24 05:22:36;;;;;;;9.98;7.90;;;5.10;99.90;;;;;;5075013;28;20223;-78
2021/04/24 05:25:05;;;;;;;15.32;9.38;;;5.10;99.90;;;;;;5067753;28;20204;-78
2021/04/24 05:27:33;;;;;;;14.85;9.30;;;5.20;99.90;;;;;;5054491;28;20217;-77
2021/04/24 05:29:59;;;;;;;16.45;8.90;;;5.40;99.90;;;;;;5053696;28;20188;-79
2021/04/24 05:32:26;;;;;;;16.05;9.25;;;5.60;99.90;;;;;;5054345;28;20274;-80
2021/04/24 05:34:52;;;;;;;18.38;9.00;;;5.80;99.90;;;;;;5054257;28;20557;-77
2021/04/24 05:37:19;;;;;;;14.45;9.32;;;6.00;99.90;;;;;;5054468;28;20216;-81
2021/04/24 05:39:46;;;;;;;12.82;8.60;;;6.10;99.90;;;;;;5054222;28;20271;-80
2021/04/24 05:42:13;;;;;;;15.70;8.52;;;6.60;99.90;;;;;;5046612;28;20240;-81
2021/04/24 05:44:48;;;;;;;12.55;8.48;;;6.80;99.90;;;;;;5048400;28;20204;-80
2021/04/24 05:47:14;;;;;;;10.73;7.40;;;7.10;99.90;;;;;;5058391;28;20223;-79
2021/04/24 05:49:41;;;;;;;18.60;7.55;;;7.40;99.90;;;;;;5057443;28;20693;-81
2021/04/24 05:52:07;;;;;;;16.85;8.82;;;7.70;99.90;;;;;;5065379;28;20226;-78
2021/04/24 05:54:34;;;;;;;10.75;7.45;;;7.80;99.90;;;;;;5072150;28;20238;-78
2021/04/24 05:57:01;;;;;;;10.02;6.55;;;7.90;99.90;;;;;;5052395;28;20222;-76
2021/04/24 05:59:27;;;;;;;16.35;7.78;;;7.90;99.90;;;;;;5068268;28;20195;-76
2021/04/24 06:01:53;;;;;;;12.23;6.85;;;7.90;99.90;;;;;;5056001;28;20212;-80
2021/04/24 06:04:20;;;;;;;12.30;8.45;;;8.00;99.90;;;;;;5052264;28;20209;-76
2021/04/24 06:06:47;;;;;;;13.77;7.30;;;7.70;99.90;;;;;;5052935;28;20247;-78
2021/04/24 06:09:13;;;;;;;14.27;7.65;;;7.70;99.90;;;;;;5073158;28;20191;-78
2021/04/24 06:11:40;;;;;;;16.27;8.35;;;7.70;99.90;;;;;;5085010;28;20246;-78
2021/04/24 06:14:06;;;;;;;10.50;6.75;;;7.70;99.90;;;;;;5073310;28;20191;-79
2021/04/24 06:16:33;;;;;;;17.58;7.60;;;7.70;99.90;;;;;;5072209;28;20219;-79
2021/04/24 06:18:59;;;;;;;12.48;7.65;;;7.70;99.90;;;;;;5045089;28;20198;-77
2021/04/24 06:21:26;;;;;;;12.63;6.85;;;7.70;99.90;;;;;;5032637;28;20224;-78
2021/04/24 06:23:52;;;;;;;11.25;6.57;;;7.80;99.90;;;;;;5067445;28;20188;-78
2021/04/24 06:26:19;;;;;;;11.27;6.15;;;8.00;99.90;;;;;;5055517;28;20291;-77
2021/04/24 06:28:45;;;;;;;10.93;6.07;;;8.10;99.90;;;;;;5053620;28;20259;-78
2021/04/24 06:31:12;;;;;;;11.48;5.80;;;8.10;99.90;;;;;;5053957;28;20193;-77
2021/04/24 06:33:38;;;;;;;15.00;7.03;;;8.30;99.90;;;;;;5046352;28;20189;-79
2021/04/24 06:36:06;;;;;;;11.05;6.72;;;8.50;99.10;;;;;;5053649;28;20208;-79
2021/04/24 06:38:32;;;;;;;9.53;5.07;;;8.70;98.60;;;;;;5074343;28;20215;-76
2021/04/24 06:40:58;;;;;;;8.83;4.60;;;9.00;97.40;;;;;;5060014;28;20442;-81
2021/04/24 06:43:25;;;;;;;9.37;5.33;;;9.20;96.60;;;;;;5051844;28;20462;-79
2021/04/24 06:45:52;;;;;;;9.40;5.70;;;9.20;95.70;;;;;;5052303;28;20536;-80
2021/04/24 06:48:18;;;;;;;10.20;6.17;;;9.50;94.20;;;;;;5051218;28;20463;-80
2021/04/24 06:50:44;;;;;;;10.67;4.87;;;9.60;93.60;;;;;;5059164;28;20418;-80
2021/04/24 06:53:13;;;;;;;7.17;5.40;;;9.70;92.20;;;;;;5088233;28;21046;-79
2021/04/24 06:55:40;;;;;;;9.03;5.83;;;9.80;91.70;;;;;;5057660;28;20471;-80
2021/04/24 06:58:07;;;;;;;8.53;4.83;;;9.80;91.50;;;;;;5032930;28;20462;-78
2021/04/24 07:00:33;;;;;;;8.83;4.90;;;9.80;91.30;;;;;;5033492;28;20443;-80
2021/04/24 07:03:00;;;;;;;8.63;5.13;;;10.00;91.10;;;;;;5047484;28;20468;-79
2021/04/24 07:05:27;;;;;;;10.47;5.83;;;9.90;91.90;;;;;;5049426;28;20479;-78
2021/04/24 07:07:53;;;;;;;9.73;6.23;;;10.10;91.20;;;;;;5052455;28;20540;-78
2021/04/24 07:10:20;;;;;;;7.23;5.57;;;10.30;89.70;;;;;;5052508;28;20506;-80
2021/04/24 07:12:46;;;;;;;8.70;6.23;;;10.30;89.40;;;;;;5055730;28;20470;-81
2021/04/24 07:15:15;;;;;;;11.57;6.10;;;10.30;90.00;;;;;;5075085;28;20492;-78
2021/04/24 07:17:44;;;;;;;10.63;5.70;;;10.30;87.70;;;;;;5062908;28;20532;-80
2021/04/24 07:20:13;;;;;;;14.33;5.83;;;10.10;88.80;;;;;;5052170;28;20462;-80
2021/04/24 07:22:40;;;;;;;10.63;5.47;;;10.20;86.60;;;;;;5051605;28;20562;-80
2021/04/24 07:25:07;;;;;;;8.47;4.53;;;10.30;84.80;;;;;;5047024;28;20459;-80
2021/04/24 07:27:33;;;;;;;9.77;5.93;;;10.30;87.00;;;;;;5046433;28;20458;-78
2021/04/24 07:30:00;;;;;;;12.10;5.20;;;10.40;85.50;;;;;;5072506;28;20493;-80
2021/04/24 07:32:27;;;;;;;12.63;6.27;;;10.50;86.80;;;;;;5075070;28;20479;-77
2021/04/24 07:34:54;;;;;;;9.27;5.20;;;10.60;83.60;;;;;;5040282;28;20472;-78
2021/04/24 07:37:20;;;;;;;8.10;6.17;;;10.60;83.90;;;;;;5047132;28;20832;-78
2021/04/24 07:39:47;;;;;;;5.87;5.10;;;10.70;84.60;;;;;;5050926;28;20439;-79
2021/04/24 07:42:13;;;;;;;6.90;4.73;;;10.90;84.20;;;;;;5046066;28;20498;-76
2021/04/24 07:44:40;;;;;;;7.33;5.43;;;11.10;83.50;;;;;;5033480;28;20491;-77
2021/04/24 07:47:08;;;;;;;14.97;6.57;;;11.10;81.90;;;;;;5047735;28;20459;-78
2021/04/24 07:49:38;;;;;;;10.50;5.50;;;11.00;84.10;;;;;;5044155;28;20436;-78
2021/04/24 07:52:08;;;;;;;12.33;5.37;;;11.10;82.90;;;;;;5036574;28;20466;-78
2021/04/24 07:54:40;;;;;;;11.17;5.40;;;11.40;79.80;;;;;;5039011;28;20463;-79
2021/04/24 07:57:08;;;;;;;8.03;5.57;;;11.60;79.60;;;;;;5051537;28;20462;-79
2021/04/24 07:59:35;;;;;;;8.13;4.97;;;11.70;78.70;;;;;;5050403;28;20947;-80
2021/04/24 08:02:02;;;;;;;11.60;5.40;;;11.90;77.00;;;;;;5052190;28;20469;-79
2021/04/24 08:04:29;;;;;;;8.00;4.80;;;12.20;74.20;;;;;;5050995;28;20470;-81
2021/04/24 08:06:55;;;;;;;11.47;5.33;;;12.40;73.70;;;;;;5051334;28;20470;-80
2021/04/24 08:09:21;;;;;;;11.53;4.70;;;12.70;70.60;;;;;;5067392;28;20470;-80
2021/04/24 08:11:48;;;;;;;7.43;5.20;;;13.30;72.70;;;;;;5047839;28;20905;-80
2021/04/24 08:14:15;;;;;;;7.73;5.00;;;13.30;66.40;;;;;;5049868;28;20431;-75
2021/04/24 08:16:41;;;;;;;6.10;5.03;;;13.20;66.50;;;;;;5049249;28;20459;-80
2021/04/24 08:19:08;;;;;;;5.70;4.37;;;13.30;67.80;;;;;;5047549;28;20447;-81
2021/04/24 08:21:34;;;;;;;6.37;5.20;;;13.30;66.90;;;;;;5050322;28;20443;-80
2021/04/24 08:24:01;;;;;;;7.63;5.10;;;13.20;64.20;;;;;;5051507;28;20420;-80
2021/04/24 08:26:29;;;;;;;11.90;4.87;;;13.10;65.40;;;;;;5064226;28;20487;-80
2021/04/24 08:28:57;;;;;;;5.73;4.27;;;13.30;66.70;;;;;;5051574;28;20514;-80
2021/04/24 08:31:24;;;;;;;6.53;4.80;;;13.80;62.60;;;;;;5049789;28;20435;-79
2021/04/24 08:33:55;;;;;;;7.20;5.37;;;14.00;61.60;;;;;;5048645;28;20435;-78
2021/04/24 08:36:24;;;;;;;6.70;4.50;;;13.90;61.90;;;;;;5051095;28;20453;-79
2021/04/24 08:38:55;;;;;;;8.03;5.20;;;13.80;59.10;;;;;;5114864;22;20454;31
2021/04/24 08:41:24;;;;;;;9.53;5.13;;;13.70;61.00;;;;;;5021290;28;21023;-74
2021/04/24 08:43:56;;;;;;;6.70;4.70;;;13.80;61.90;;;;;;5028034;28;20440;-74
2021/04/24 08:46:23;;;;;;;8.37;4.93;;;13.70;61.90;;;;;;5024336;28;20460;-75
2021/04/24 08:48:52;;;;;;;6.93;4.30;;;13.90;61.40;;;;;;5010500;28;20437;-74
2021/04/24 08:51:25;;;;;;;5.87;4.43;;;14.10;60.30;;;;;;5013186;28;20443;-75
2021/04/24 08:53:52;;;;;;;10.23;4.00;;;14.20;58.30;;;;;;5026827;28;20490;-75
2021/04/24 08:56:25;;;;;;;5.70;4.20;;;14.20;58.40;;;;;;4999700;28;20496;-75
2021/04/24 08:58:53;;;;;;;5.80;5.13;;;14.40;58.60;;;;;;5019312;28;20452;-75
2021/04/24 09:01:20;;;;;;;7.13;4.97;;;14.30;57.60;;;;;;5011727;28;20425;-75
2021/04/24 09:03:47;;;;;;;9.17;5.40;;;14.20;58.40;;;;;;5028666;28;20469;-74
2021/04/24 09:06:19;;;;;;;11.00;5.13;;;14.30;58.70;;;;;;4991166;28;20475;-75
2021/04/24 09:09:00;;;;;;;6.60;5.33;;;14.30;57.30;;;;;;5040420;28;20447;-75
2021/04/24 09:11:28;;;;;;;5.73;5.10;;;14.60;58.70;;;;;;4995959;28;20451;-75
2021/04/24 09:14:03;;;;;;;7.93;4.83;;;14.60;58.00;;;;;;5000600;28;20830;-75
2021/04/24 09:16:33;;;;;;;5.77;4.77;;;14.90;59.00;;;;;;5019255;28;20457;-75
2021/04/24 09:19:00;;;;;;;5.63;4.00;;;15.30;55.90;;;;;;5013715;28;20431;-75
2021/04/24 09:21:29;;;;;;;8.63;4.90;;;15.30;57.10;;;;;;5024650;28;20476;-75
2021/04/24 09:23:56;;;;;;;9.30;5.20;;;15.40;55.90;;;;;;5003254;28;20424;-75
2021/04/24 09:26:25;;;;;;;5.67;4.57;;;15.20;56.60;;;;;;5006204;28;20476;-75
2021/04/24 09:29:00;;;;;;;9.37;5.13;;;15.10;57.20;;;;;;5011223;28;20444;-76
2021/04/24 09:31:28;;;;;;;7.53;5.40;;;15.10;56.70;;;;;;5010248;28;20583;-75
2021/04/24 09:33:57;;;;;;;6.73;5.23;;;15.20;56.20;;;;;;5013791;28;20844;-75
2021/04/24 09:36:32;;;;;;;5.47;4.87;;;15.20;55.50;;;;;;4998249;28;20502;-75
2021/04/24 09:39:01;;;;;;;11.60;6.23;;;15.20;55.90;;;;;;5012218;28;20436;-75
2021/04/24 09:41:31;;;;;;;9.20;6.03;;;15.00;57.00;;;;;;5008335;28;20878;-75
2021/04/24 09:44:08;;;;;;;8.97;5.87;;;14.90;56.80;;;;;;5037683;28;20933;-75
2021/04/24 09:46:52;;;;;;;8.10;5.90;;;14.80;57.40;;;;;;5008176;28;20483;-75
2021/04/24 09:49:28;;;;;;;8.03;5.13;;;14.80;55.70;;;;;;5012662;28;20542;-75
2021/04/24 09:51:55;;;;;;;9.77;5.50;;;14.80;55.90;;;;;;5011179;28;20468;-75
2021/04/24 09:54:25;;;;;;;7.50;5.53;;;14.70;55.40;;;;;;5015046;28;20445;-75
2021/04/24 09:57:01;;;;;;;10.67;5.50;;;14.80;54.80;;;;;;5015295;28;20476;-75
2021/04/24 09:59:30;;;;;;;10.13;5.60;;;14.70;55.90;;;;;;5008559;28;20449;-75
2021/04/24 10:02:07;;;;;;;7.33;4.93;;;14.80;55.20;;;;;;5025391;28;20826;-75
2021/04/24 10:05:04;;;;;;;5.13;3.57;;;14.70;55.80;;;;;;5021114;28;20490;-75
2021/04/24 10:07:41;;;;;;;5.47;4.17;;;14.70;57.20;;;;;;5013131;28;20469;-75
2021/04/24 10:10:10;;;;;;;5.93;4.53;;;14.70;55.10;;;;;;5006000;28;61380;-75
2021/04/24 10:12:37;;;;;;;4.07;3.67;;;14.80;55.40;;;;;;5025287;28;20517;-75
2021/04/24 10:15:05;;;;;;;10.33;5.40;;;14.90;55.90;;;;;;5015328;28;20437;-75
2021/04/24 10:17:33;;;;;;;6.20;5.50;;;15.10;53.90;;;;;;5013270;28;20472;-75
2021/04/24 10:20:01;;;;;;;6.53;4.83;;;15.00;53.70;;;;;;5005663;28;20852;-75
2021/04/24 10:22:28;;;;;;;5.13;4.43;;;15.10;54.20;;;;;;5029178;28;20495;-75
2021/04/24 10:24:54;;;;;;;7.70;5.10;;;15.10;52.60;;;;;;5014768;28;20461;-75
2021/04/24 10:27:22;;;;;;;4.37;3.80;;;15.20;51.40;;;;;;4994135;28;20462;-75
2021/04/24 10:29:50;;;;;;;7.10;4.70;;;15.20;52.70;;;;;;5009297;28;20428;-75
2021/04/24 10:32:17;;;;;;;9.87;5.20;;;15.10;54.20;;;;;;5027568;28;20460;-75
2021/04/24 10:34:45;;;;;;;6.40;4.70;;;15.00;52.40;;;;;;5002521;28;20425;-75
2021/04/24 10:37:11;;;;;;;7.20;4.83;;;14.90;52.40;;;;;;5013341;28;20826;-75
2021/04/24 10:39:40;;;;;;;5.73;4.77;;;14.80;55.40;;;;;;5011727;28;20456;-75
2021/04/24 10:42:21;;;;;;;10.33;5.67;;;14.80;52.90;;;;;;5005853;28;20539;-75
2021/04/24 10:44:56;;;;;;;9.27;5.63;;;14.80;54.10;;;;;;5023742;28;20474;-75
2021/04/24 10:47:44;;;;;;;7.10;5.60;;;14.70;53.60;;;;;;5022669;28;20478;-75
2021/04/24 10:50:17;;;;;;;9.07;5.67;;;14.60;55.50;;;;;;4996995;28;20450;-75
2021/04/24 10:52:45;;;;;;;7.70;5.23;;;14.70;55.40;;;;;;5009733;28;20525;-75
2021/04/24 10:55:16;;;;;;;9.00;5.90;;;14.70;55.20;;;;;;5010196;28;20936;-75
2021/04/24 10:57:50;;;;;;;10.37;6.40;;;14.80;55.50;;;;;;4999209;28;20483;-75
2021/04/24 11:00:29;;;;;;;14.53;5.67;;;14.90;54.80;;;;;;5028487;28;20427;-75
2021/04/24 11:03:01;;;;;;;9.07;5.70;;;14.90;54.00;;;;;;5005895;28;21083;-74
2021/04/24 11:05:44;;;;;;;9.33;6.67;;;14.90;55.90;;;;;;5008637;28;20483;-75
2021/04/24 11:08:11;;;;;;;6.60;5.90;;;15.00;55.50;;;;;;5012554;28;20473;-75
2021/04/24 11:11:04;;;;;;;11.63;6.37;;;15.10;55.40;;;;;;5003403;28;20533;-75
2021/04/24 11:13:53;;;;;;;7.20;5.33;;;15.20;53.70;;;;;;5006847;28;20472;-74
2021/04/24 11:16:23;;;;;;;11.00;7.03;;;15.20;55.10;;;;;;5027496;28;20507;-74
2021/04/24 11:18:51;;;;;;;13.27;7.20;;;15.00;53.50;;;;;;5011141;28;21054;-74
2021/04/24 11:21:18;;;;;;;5.90;5.30;;;15.00;55.60;;;;;;4992955;28;20431;-74
2021/04/24 11:23:47;;;;;;;6.97;5.57;;;15.00;54.20;;;;;;5019523;28;20466;-74
2021/04/24 11:26:36;;;;;;;6.60;5.93;;;15.00;55.30;;;;;;5002255;28;20487;-74
2021/04/24 11:29:18;;;;;;;8.67;6.40;;;14.90;55.40;;;;;;5021211;28;20469;-74
2021/04/24 11:31:49;;;;;;;11.57;6.27;;;15.00;56.00;;;;;;5012925;28;20524;-74
2021/04/24 11:34:26;;;;;;;8.23;6.50;;;14.90;56.70;;;;;;5002531;28;20986;-74
2021/04/24 11:37:13;;;;;;;8.67;6.37;;;14.90;54.90;;;;;;5018654;28;20848;-74
2021/04/24 11:40:19;;;;;;;14.27;8.63;;;14.90;54.10;;;;;;4993025;28;20453;-74
2021/04/24 11:43:03;;;;;;;10.13;6.37;;;14.80;54.40;;;;;;5001719;28;20477;-74
2021/04/24 11:45:50;;;;;;;10.53;6.17;;;14.90;59.00;;;;;;5012928;28;20561;-74
2021/04/24 11:48:49;;;;;;;7.87;6.40;;;14.90;57.40;;;;;;5012362;28;20474;-74
2021/04/24 11:51:39;;;;;;;9.00;6.40;;;15.00;55.00;;;;;;4991416;28;20439;-74
2021/04/24 11:54:14;;;;;;;10.53;6.60;;;15.20;54.70;;;;;;5009461;28;20427;-74
2021/04/24 11:56:48;;;;;;;18.37;15.03;;;15.20;56.60;;;;;;5021870;28;20953;-74
2021/04/24 11:59:25;;;;;;;18.47;10.23;;;15.20;55.40;;;;;;5013492;28;20435;-74
2021/04/24 12:01:58;;;;;;;9.60;7.07;;;15.30;58.60;;;;;;5012000;28;20452;-74
2021/04/24 12:04:31;;;;;;;7.37;5.13;;;15.40;56.30;;;;;;5022548;28;20458;-74
2021/04/24 12:07:09;;;;;;;6.20;5.60;;;15.40;53.50;;;;;;5015576;28;20834;-74
2021/04/24 12:09:55;;;;;;;7.93;5.93;;;15.20;52.40;;;;;;5001615;28;21226;-74
2021/04/24 12:12:36;;;;;;;8.60;6.53;;;15.00;53.60;;;;;;4993626;28;20896;-74
2021/04/24 12:15:05;;;;;;;6.03;5.43;;;14.90;52.30;;;;;;5031938;28;20413;-75
2021/04/24 12:17:33;;;;;;;13.43;9.00;;;14.80;55.00;;;;;;5044747;28;20484;-74
2021/04/24 12:20:00;;;;;;;11.93;7.97;;;14.90;54.70;;;;;;5018146;28;20933;-74
2021/04/24 12:22:27;;;;;;;8.97;6.20;;;15.00;57.00;;;;;;5024818;28;20478;-74
2021/04/24 12:25:00;;;;;;;9.33;7.00;;;15.20;54.70;;;;;;5014851;28;20478;-74
2021/04/24 12:27:41;;;;;;;8.70;5.87;;;15.30;55.50;;;;;;5010398;28;20555;-74
2021/04/24 12:30:30;;;;;;;10.43;6.07;;;15.40;56.60;;;;;;5008691;28;21112;-74
2021/04/24 12:33:13;;;;;;;9.67;6.30;;;15.40;52.20;;;;;;5008508;28;20993;-74
2021/04/24 12:35:48;;;;;;;8.33;5.53;;;15.30;51.50;;;;;;5015624;28;20989;-74
2021/04/24 12:38:23;;;;;;;7.63;5.87;;;15.40;55.00;;;;;;5015122;28;20938;-74
2021/04/24 12:40:53;;;;;;;8.50;7.00;;;15.50;56.80;;;;;;5009824;28;20964;-75
2021/04/24 12:43:49;;;;;;;9.40;6.30;;;15.60;56.70;;;;;;5011458;28;20468;-74
2021/04/24 12:46:49;;;;;;;10.00;8.00;;;15.60;52.10;;;;;;5014956;28;20836;-75
2021/04/24 12:49:18;;;;;;;10.23;7.23;;;15.60;54.30;;;;;;5031690;28;20462;-75
2021/04/24 12:52:05;;;;;;;11.47;7.90;;;15.50;55.60;;;;;;5011533;28;20515;-74
2021/04/24 12:54:32;;;;;;;9.70;6.80;;;15.50;55.10;;;;;;5010719;28;20489;-74
2021/04/24 12:57:19;;;;;;;9.20;6.00;;;15.40;55.20;;;;;;5009852;28;20866;-74
2021/04/24 13:00:00;;;;;;;11.37;6.87;;;15.60;55.50;;;;;;5025546;28;20437;-74